Boston, Massachusetts
Current Conditions -  °F | °C
As of 12:54 PM on Saturday 20 Dec 2014 (Local Time) from KBOS Reporting Station
Overcast Overcast  
Wind Chill: 26°   Ceiling: 2000
Heat Index: 33°   Visibility: 10mi
Dew Point: 24°   Wind: 8mph
Humidity: 70%   Direction: 340°NNW
Pressure: 30.27"   Gusts: NA
Location:  42.36°N, 71.06°W
Report Text: KBOS 201754Z 34007KT 10SM BKN020 OVC028 01/M04 A3027 RMK AO2 SLP248 T00061044 10011 21022 56011
Loading
Personal Weather Stations






























Interactive Weather Map New forecast layout! Learn more

10-Day Weather Forecast

Advertisements
Track Severe Weather on mobile